createdAt,value
2018-12-20T00:01:24.173Z,0.80
2018-12-20T00:03:52.423Z,0.80
2018-12-20T00:06:20.877Z,0.80
2018-12-20T00:08:49.071Z,0.90
2018-12-20T00:11:17.283Z,0.90
2018-12-20T00:13:45.514Z,0.90
2018-12-20T00:16:13.835Z,0.90
2018-12-20T00:18:42.154Z,1.00
2018-12-20T00:21:11.165Z,1.00
2018-12-20T00:23:39.840Z,1.00
2018-12-20T00:26:08.050Z,1.00
2018-12-20T00:28:36.438Z,1.10
2018-12-20T00:31:05.044Z,1.10
2018-12-20T00:33:33.255Z,1.10
2018-12-20T00:36:03.048Z,1.00
2018-12-20T00:38:31.490Z,1.00
2018-12-20T00:40:59.708Z,1.00
2018-12-20T00:43:27.906Z,0.90
2018-12-20T00:45:56.455Z,0.90
2018-12-20T00:48:24.627Z,1.00
2018-12-20T00:50:52.861Z,1.00
2018-12-20T00:53:21.177Z,1.00
2018-12-20T00:55:49.401Z,1.00
2018-12-20T00:58:17.589Z,1.00
2018-12-20T01:00:45.696Z,1.00
2018-12-20T01:03:14.202Z,1.00
2018-12-20T01:05:42.484Z,1.00
2018-12-20T01:08:10.864Z,1.00
2018-12-20T01:10:39.072Z,1.00
2018-12-20T01:13:07.354Z,1.00
2018-12-20T01:15:35.380Z,1.00
2018-12-20T01:18:03.888Z,1.10
2018-12-20T01:20:32.176Z,1.10
2018-12-20T01:23:00.703Z,1.10
2018-12-20T01:25:29.041Z,1.10
2018-12-20T01:27:57.513Z,1.10
2018-12-20T01:30:25.847Z,1.10
2018-12-20T01:32:54.358Z,1.20
2018-12-20T01:35:22.546Z,1.20
2018-12-20T01:37:51.349Z,1.20
2018-12-20T01:40:19.506Z,1.10
2018-12-20T01:42:47.742Z,1.10
2018-12-20T01:45:15.849Z,1.10
2018-12-20T01:47:43.912Z,1.10
2018-12-20T01:50:12.012Z,1.10
2018-12-20T01:52:40.136Z,1.20
2018-12-20T01:55:08.813Z,1.20
2018-12-20T01:57:37.010Z,1.20
2018-12-20T02:00:09.118Z,1.20
2018-12-20T02:02:37.211Z,1.30
2018-12-20T02:05:05.698Z,1.30
2018-12-20T02:07:36.150Z,1.30
2018-12-20T02:10:04.739Z,1.30
2018-12-20T02:12:32.863Z,1.40
2018-12-20T02:15:01.724Z,1.40
2018-12-20T02:17:30.812Z,1.40
2018-12-20T02:19:59.258Z,1.50
2018-12-20T02:22:27.531Z,1.50
2018-12-20T02:24:55.884Z,1.50
2018-12-20T02:27:24.053Z,1.50
2018-12-20T02:29:53.007Z,1.50
2018-12-20T02:32:21.381Z,1.50
2018-12-20T02:34:49.841Z,1.60
2018-12-20T02:37:18.344Z,1.60
2018-12-20T02:39:46.393Z,1.60
2018-12-20T02:42:14.815Z,1.60
2018-12-20T02:44:43.147Z,1.70
2018-12-20T02:47:11.437Z,1.60
2018-12-20T02:49:39.696Z,1.60
2018-12-20T02:52:08.113Z,1.60
2018-12-20T02:54:36.456Z,1.60
2018-12-20T02:57:04.750Z,1.70
2018-12-20T02:59:32.991Z,1.70
2018-12-20T03:02:01.137Z,1.70
2018-12-20T03:04:30.158Z,1.70
2018-12-20T03:06:58.371Z,1.70
2018-12-20T03:09:26.618Z,1.80
2018-12-20T03:11:54.889Z,1.80
2018-12-20T03:14:23.260Z,1.80
2018-12-20T03:16:51.438Z,1.90
2018-12-20T03:19:20.559Z,1.90
2018-12-20T03:21:48.827Z,1.90
2018-12-20T03:24:17.117Z,2.00
2018-12-20T03:26:45.475Z,2.00
2018-12-20T03:29:13.765Z,2.00
2018-12-20T03:31:41.926Z,2.00
2018-12-20T03:34:10.133Z,2.10
2018-12-20T03:36:38.534Z,2.10
2018-12-20T03:39:08.274Z,2.10
2018-12-20T03:41:36.471Z,2.20
2018-12-20T03:44:04.897Z,2.20
2018-12-20T03:46:33.834Z,2.20
2018-12-20T03:49:02.605Z,2.30
2018-12-20T03:51:31.000Z,2.30
2018-12-20T03:54:00.296Z,2.40
2018-12-20T03:56:29.465Z,2.40
2018-12-20T03:59:00.085Z,2.40
2018-12-20T04:01:28.525Z,2.40
2018-12-20T04:03:57.039Z,2.50
2018-12-20T04:06:25.532Z,2.60
2018-12-20T04:08:53.869Z,2.60
2018-12-20T04:11:22.266Z,2.80
2018-12-20T04:13:51.358Z,2.90
2018-12-20T04:16:21.260Z,2.90
2018-12-20T04:18:50.370Z,2.80
2018-12-20T04:21:20.985Z,2.80
2018-12-20T04:23:49.562Z,2.80
2018-12-20T04:26:17.897Z,2.80
2018-12-20T04:28:46.112Z,2.70
2018-12-20T04:31:14.402Z,2.70
2018-12-20T04:33:42.699Z,2.60
2018-12-20T04:36:10.946Z,2.60
2018-12-20T04:38:39.277Z,2.60
2018-12-20T04:41:08.070Z,2.70
2018-12-20T04:43:36.234Z,2.60
2018-12-20T04:46:05.947Z,2.60
2018-12-20T04:48:34.376Z,2.60
2018-12-20T04:51:03.808Z,2.70
2018-12-20T04:53:32.523Z,2.70
2018-12-20T04:56:00.987Z,2.70
2018-12-20T04:58:30.398Z,2.80
2018-12-20T05:00:59.445Z,2.80
2018-12-20T05:03:28.982Z,2.80
2018-12-20T05:05:57.609Z,2.90
2018-12-20T05:08:25.908Z,2.90
2018-12-20T05:10:54.833Z,2.90
2018-12-20T05:13:23.233Z,2.90
2018-12-20T05:15:56.022Z,2.90
2018-12-20T05:18:21.644Z,3.00
2018-12-20T05:20:49.903Z,3.00
2018-12-20T05:23:18.014Z,3.00
2018-12-20T05:25:46.078Z,3.00
2018-12-20T05:28:14.360Z,3.10
2018-12-20T05:30:42.566Z,3.10
2018-12-20T05:33:10.692Z,3.10
2018-12-20T05:35:38.946Z,3.10
2018-12-20T05:38:07.335Z,3.10
2018-12-20T05:40:35.637Z,3.10
2018-12-20T05:43:03.926Z,3.10
2018-12-20T05:45:32.186Z,3.10
2018-12-20T05:48:00.262Z,3.10
2018-12-20T05:50:28.406Z,3.10
2018-12-20T05:52:56.473Z,3.10
2018-12-20T05:55:24.702Z,3.10
2018-12-20T05:57:52.988Z,3.10
2018-12-20T06:00:21.134Z,3.10
2018-12-20T06:02:49.589Z,3.10
2018-12-20T06:05:17.982Z,3.10
2018-12-20T06:07:46.110Z,3.00
2018-12-20T06:10:14.616Z,3.00
2018-12-20T06:12:43.034Z,3.00
2018-12-20T06:15:11.702Z,2.90
2018-12-20T06:17:39.821Z,2.90
2018-12-20T06:20:08.380Z,2.90
2018-12-20T06:22:36.481Z,2.90
2018-12-20T06:25:04.889Z,2.90
2018-12-20T06:27:32.950Z,2.90
2018-12-20T06:30:01.025Z,2.80
2018-12-20T06:32:29.116Z,2.70
2018-12-20T06:34:57.146Z,2.60
2018-12-20T06:37:25.306Z,2.60
2018-12-20T06:39:53.378Z,2.50
2018-12-20T06:42:21.686Z,2.30
2018-12-20T06:44:49.742Z,2.20
2018-12-20T06:47:17.822Z,2.20
2018-12-20T06:49:45.879Z,2.10
2018-12-20T06:52:14.083Z,2.10
2018-12-20T06:54:42.226Z,1.90
2018-12-20T06:57:10.444Z,1.90
2018-12-20T06:59:38.470Z,1.90
2018-12-20T07:02:06.819Z,1.90
2018-12-20T07:04:35.139Z,1.90
2018-12-20T07:07:03.512Z,1.90
2018-12-20T07:09:31.788Z,2.00
2018-12-20T07:11:59.896Z,2.00
2018-12-20T07:14:28.046Z,2.00
2018-12-20T07:16:56.089Z,2.10
2018-12-20T07:19:24.176Z,2.30
2018-12-20T07:21:52.233Z,2.40
2018-12-20T07:24:20.332Z,2.50
2018-12-20T07:26:48.870Z,2.60
2018-12-20T07:29:17.149Z,2.70
2018-12-20T07:31:45.326Z,2.80
2018-12-20T07:34:13.743Z,2.90
2018-12-20T07:36:41.786Z,3.00
2018-12-20T07:39:10.666Z,3.00
2018-12-20T07:41:38.744Z,3.10
2018-12-20T07:44:06.857Z,3.10
2018-12-20T07:46:37.952Z,3.10
2018-12-20T07:49:05.234Z,3.10
2018-12-20T07:51:33.935Z,3.20
2018-12-20T07:54:02.703Z,3.40
2018-12-20T07:56:30.863Z,3.40
2018-12-20T08:01:23.534Z,3.60
2018-12-20T08:03:51.679Z,3.90
2018-12-20T08:06:19.898Z,4.20
2018-12-20T08:08:47.944Z,4.40
2018-12-20T08:11:16.051Z,4.40
2018-12-20T08:13:44.193Z,4.50
2018-12-20T08:16:13.390Z,4.40
2018-12-20T08:18:42.171Z,4.50
2018-12-20T08:21:10.258Z,4.50
2018-12-20T08:23:38.897Z,4.30
2018-12-20T08:26:07.017Z,4.30
2018-12-20T08:28:35.977Z,4.30
2018-12-20T08:31:04.088Z,4.50
2018-12-20T08:33:32.118Z,4.70
2018-12-20T08:36:00.218Z,5.00
2018-12-20T08:38:28.269Z,5.10
2018-12-20T08:40:56.589Z,5.20
2018-12-20T08:43:26.287Z,5.20
2018-12-20T08:45:54.470Z,5.20
2018-12-20T08:48:22.630Z,5.20
2018-12-20T08:50:50.804Z,5.20
2018-12-20T08:53:19.069Z,5.30
2018-12-20T08:55:47.121Z,5.60
2018-12-20T08:58:15.413Z,5.80
2018-12-20T09:00:44.138Z,5.90
2018-12-20T09:03:12.206Z,5.90
2018-12-20T09:05:40.214Z,5.90
2018-12-20T09:08:08.530Z,5.70
2018-12-20T09:10:36.674Z,5.70
2018-12-20T09:13:09.514Z,5.60
2018-12-20T09:15:34.958Z,5.60
2018-12-20T09:18:04.210Z,5.60
2018-12-20T09:20:32.803Z,5.70
2018-12-20T09:23:01.265Z,5.60
2018-12-20T09:25:29.302Z,5.60
2018-12-20T09:27:57.599Z,5.60
2018-12-20T09:30:30.460Z,5.60
2018-12-20T09:32:55.891Z,5.80
2018-12-20T09:35:24.171Z,5.90
2018-12-20T09:37:52.247Z,6.00
2018-12-20T09:40:20.366Z,6.00
2018-12-20T09:42:48.685Z,6.30
2018-12-20T09:45:16.785Z,6.70
2018-12-20T09:47:53.766Z,6.50
2018-12-20T09:50:21.878Z,6.50
2018-12-20T09:52:50.097Z,6.20
2018-12-20T09:55:18.230Z,6.10
2018-12-20T09:57:46.314Z,6.00
2018-12-20T10:00:14.369Z,6.00
2018-12-20T10:02:42.473Z,6.10
2018-12-20T10:05:10.613Z,6.20
2018-12-20T10:07:38.733Z,6.30
2018-12-20T10:10:07.269Z,6.30
2018-12-20T10:12:35.376Z,6.40
2018-12-20T10:15:03.828Z,6.40
2018-12-20T10:17:32.644Z,6.40
2018-12-20T10:20:00.810Z,6.50
2018-12-20T10:22:29.054Z,6.50
2018-12-20T10:24:57.561Z,6.40
2018-12-20T10:27:31.415Z,6.30
2018-12-20T10:29:55.972Z,6.30
2018-12-20T10:32:24.095Z,6.40
2018-12-20T10:34:52.319Z,6.40
2018-12-20T10:37:20.566Z,6.50
2018-12-20T10:39:49.967Z,6.50
2018-12-20T10:42:18.232Z,6.50
2018-12-20T10:44:46.319Z,6.50
2018-12-20T10:47:28.597Z,6.60
2018-12-20T10:49:50.370Z,6.70
2018-12-20T10:52:19.479Z,6.70
2018-12-20T10:54:47.847Z,6.80
2018-12-20T10:57:15.868Z,6.80
2018-12-20T10:59:44.063Z,6.80
2018-12-20T11:02:17.695Z,6.80
2018-12-20T11:04:51.294Z,6.90
2018-12-20T11:07:25.070Z,7.00
2018-12-20T11:09:58.925Z,6.90
2018-12-20T11:12:31.634Z,6.90
2018-12-20T11:14:59.943Z,6.90
2018-12-20T11:17:37.167Z,6.90
2018-12-20T11:19:58.874Z,6.90
2018-12-20T11:22:27.778Z,6.90
2018-12-20T11:24:56.903Z,6.90
2018-12-20T11:27:25.992Z,7.00
2018-12-20T11:29:54.395Z,7.00
2018-12-20T11:32:22.640Z,7.00
2018-12-20T11:34:50.732Z,6.80
2018-12-20T11:37:18.822Z,6.80
2018-12-20T11:39:47.075Z,6.60
2018-12-20T11:42:15.270Z,6.60
2018-12-20T11:44:43.359Z,6.60
2018-12-20T11:47:16.859Z,6.60
2018-12-20T11:49:44.990Z,6.50
2018-12-20T11:52:13.212Z,6.60
2018-12-20T11:54:41.266Z,6.70
2018-12-20T11:57:09.333Z,6.80
2018-12-20T11:59:37.408Z,6.90
2018-12-20T12:02:05.557Z,7.00
2018-12-20T12:04:33.736Z,7.00
2018-12-20T12:07:01.796Z,7.20
2018-12-20T12:09:29.886Z,7.30
2018-12-20T12:11:57.935Z,7.30
2018-12-20T12:14:26.132Z,7.40
2018-12-20T12:16:54.302Z,7.30
2018-12-20T12:19:22.381Z,7.20
2018-12-20T12:21:50.641Z,7.20
2018-12-20T12:24:18.737Z,7.20
2018-12-20T12:26:46.970Z,7.10
2018-12-20T12:29:15.180Z,7.10
2018-12-20T12:31:43.212Z,7.10
2018-12-20T12:34:11.627Z,7.10
2018-12-20T12:36:39.781Z,7.10
2018-12-20T12:39:08.533Z,7.20
2018-12-20T12:41:36.722Z,7.30
2018-12-20T12:44:05.331Z,7.40
2018-12-20T12:46:34.014Z,7.50
2018-12-20T12:49:02.079Z,7.50
2018-12-20T12:51:30.175Z,7.60
2018-12-20T12:53:58.309Z,7.70
2018-12-20T12:56:26.406Z,7.80
2018-12-20T12:58:54.683Z,7.80
2018-12-20T13:01:22.764Z,7.80
2018-12-20T13:03:51.111Z,7.70
2018-12-20T13:06:19.199Z,7.60
2018-12-20T13:08:47.251Z,7.70
2018-12-20T13:11:15.442Z,7.70
2018-12-20T13:13:43.735Z,7.70
2018-12-20T13:16:11.805Z,7.70
2018-12-20T13:18:39.835Z,7.70
2018-12-20T13:21:08.046Z,7.70
2018-12-20T13:23:36.090Z,7.60
2018-12-20T13:26:04.273Z,7.70
2018-12-20T13:28:32.446Z,7.70
2018-12-20T13:31:00.523Z,7.60
2018-12-20T13:33:28.572Z,7.60
2018-12-20T13:35:56.759Z,7.60
2018-12-20T13:38:24.942Z,7.50
2018-12-20T13:40:52.994Z,7.60
2018-12-20T13:43:21.196Z,7.70
2018-12-20T13:45:49.229Z,7.70
2018-12-20T13:48:22.279Z,7.70
2018-12-20T13:50:47.419Z,7.70
2018-12-20T13:53:15.681Z,7.70
2018-12-20T13:55:43.777Z,7.60
2018-12-20T13:58:12.003Z,7.50
2018-12-20T14:00:39.959Z,7.50
2018-12-20T14:03:08.030Z,7.40
2018-12-20T14:05:36.042Z,7.30
2018-12-20T14:08:04.838Z,7.10
2018-12-20T14:10:32.922Z,7.10
2018-12-20T14:13:01.027Z,7.00
2018-12-20T14:15:29.050Z,6.90
2018-12-20T14:17:58.222Z,6.90
2018-12-20T14:20:26.362Z,7.00
2018-12-20T14:22:54.402Z,7.00
2018-12-20T14:25:22.501Z,6.90
2018-12-20T14:27:50.635Z,6.90
2018-12-20T14:30:19.234Z,6.90
2018-12-20T14:32:47.282Z,6.90
2018-12-20T14:35:15.497Z,6.80
2018-12-20T14:37:43.557Z,6.70
2018-12-20T14:40:11.857Z,6.70
2018-12-20T14:42:40.007Z,6.50
2018-12-20T14:45:08.659Z,6.60
2018-12-20T14:47:36.737Z,6.50
2018-12-20T14:50:05.871Z,6.40
2018-12-20T14:52:33.913Z,6.30
2018-12-20T14:55:03.038Z,6.40
2018-12-20T14:57:31.130Z,6.30
2018-12-20T14:59:59.165Z,6.20
2018-12-20T15:02:27.315Z,6.20
2018-12-20T15:04:56.303Z,6.20
2018-12-20T15:07:24.594Z,6.10
2018-12-20T15:09:52.664Z,5.90
2018-12-20T15:12:20.856Z,5.80
2018-12-20T15:14:48.920Z,5.60
2018-12-20T15:17:17.104Z,5.60
2018-12-20T15:19:45.262Z,5.50
2018-12-20T15:22:13.445Z,5.30
2018-12-20T15:24:41.590Z,5.10
2018-12-20T15:27:10.390Z,4.90
2018-12-20T15:29:38.447Z,4.80
2018-12-20T15:32:06.643Z,4.60
2018-12-20T15:34:34.690Z,4.40
2018-12-20T15:37:03.010Z,4.20
2018-12-20T15:39:31.150Z,4.10
2018-12-20T15:41:59.269Z,4.10
2018-12-20T15:44:27.492Z,4.00
2018-12-20T15:46:55.794Z,4.00
2018-12-20T15:49:24.046Z,3.90
2018-12-20T15:51:55.510Z,3.80
2018-12-20T15:54:25.017Z,3.70
2018-12-20T15:56:53.585Z,3.80
2018-12-20T15:59:22.477Z,4.00
2018-12-20T16:01:50.754Z,3.90
2018-12-20T16:04:18.958Z,3.50
2018-12-20T16:06:47.205Z,3.30
2018-12-20T16:09:27.137Z,3.20
2018-12-20T16:12:14.689Z,3.30
2018-12-20T16:15:04.032Z,3.50
2018-12-20T16:17:58.429Z,3.80
2018-12-20T16:20:46.125Z,3.90
2018-12-20T16:23:30.806Z,3.90
2018-12-20T16:29:10.135Z,4.00
2018-12-20T16:31:59.562Z,4.10
2018-12-20T16:34:41.463Z,4.10
2018-12-20T16:37:21.960Z,3.90
2018-12-20T16:39:57.223Z,4.00
2018-12-20T16:42:31.287Z,4.10
2018-12-20T16:45:16.570Z,4.20
2018-12-20T16:47:45.158Z,4.20
2018-12-20T16:50:28.675Z,4.20
2018-12-20T16:53:12.112Z,4.20
2018-12-20T16:55:50.323Z,4.20
2018-12-20T16:58:18.696Z,4.10
2018-12-20T17:00:46.724Z,4.00
2018-12-20T17:03:14.912Z,4.00
2018-12-20T17:05:43.013Z,4.00
2018-12-20T17:08:11.039Z,3.90
2018-12-20T17:10:39.459Z,4.00
2018-12-20T17:13:07.786Z,3.90
2018-12-20T17:15:35.869Z,4.00
2018-12-20T17:18:04.940Z,3.90
2018-12-20T17:20:33.477Z,3.90
2018-12-20T17:23:02.036Z,4.00
2018-12-20T17:25:30.451Z,4.00
2018-12-20T17:27:59.431Z,4.10
2018-12-20T17:30:28.382Z,4.20
2018-12-20T17:32:56.896Z,4.20
2018-12-20T17:35:25.433Z,4.20
2018-12-20T17:37:54.076Z,4.30
2018-12-20T17:40:22.441Z,4.30
2018-12-20T17:42:50.869Z,4.30
2018-12-20T17:45:18.966Z,4.40
2018-12-20T17:47:47.169Z,4.30
2018-12-20T17:50:15.231Z,4.20
2018-12-20T17:52:43.282Z,4.20
2018-12-20T17:55:11.672Z,4.00
2018-12-20T17:57:40.062Z,4.00
2018-12-20T18:00:10.400Z,3.90
2018-12-20T18:02:38.594Z,3.80
2018-12-20T18:05:07.459Z,3.70
2018-12-20T18:07:35.607Z,3.70
2018-12-20T18:10:19.523Z,3.70
2018-12-20T18:13:13.417Z,3.80
2018-12-20T18:16:01.291Z,4.00
2018-12-20T18:18:53.322Z,4.00
2018-12-20T18:21:36.894Z,4.00
2018-12-20T18:24:13.514Z,4.00
2018-12-20T18:26:47.909Z,4.00
2018-12-20T18:29:27.146Z,4.00
2018-12-20T18:32:04.963Z,4.10
2018-12-20T18:34:49.388Z,4.20
2018-12-20T18:37:28.379Z,4.20
2018-12-20T18:40:03.370Z,4.30
2018-12-20T18:42:32.238Z,4.30
2018-12-20T18:45:25.352Z,4.30
2018-12-20T18:48:19.620Z,4.30
2018-12-20T18:51:11.852Z,4.30
2018-12-20T18:54:01.812Z,4.30
2018-12-20T18:56:52.376Z,4.30
2018-12-20T18:59:45.067Z,4.20
2018-12-20T19:05:25.155Z,4.30
2018-12-20T19:08:11.389Z,4.30
2018-12-20T19:11:02.687Z,4.40
2018-12-20T19:13:55.117Z,4.40
2018-12-20T19:16:38.932Z,4.40
2018-12-20T19:19:27.962Z,4.40
2018-12-20T19:21:57.686Z,4.50
2018-12-20T19:24:25.895Z,4.50
2018-12-20T19:26:53.934Z,4.50
2018-12-20T19:29:22.371Z,4.50
2018-12-20T19:31:51.235Z,4.30
2018-12-20T19:34:19.954Z,4.30
2018-12-20T19:36:48.245Z,4.20
2018-12-20T19:39:18.004Z,4.10
2018-12-20T19:41:46.187Z,4.00
2018-12-20T19:44:14.200Z,3.90
2018-12-20T19:46:43.058Z,3.70
2018-12-20T19:49:11.218Z,3.50
2018-12-20T19:51:39.369Z,3.40
2018-12-20T19:54:07.570Z,3.50
2018-12-20T19:56:35.743Z,3.40
2018-12-20T19:59:03.974Z,3.40
2018-12-20T20:01:33.402Z,3.40
2018-12-20T20:04:01.584Z,3.50
2018-12-20T20:06:29.665Z,3.50
2018-12-20T20:08:57.821Z,3.50
2018-12-20T20:11:26.011Z,3.50
2018-12-20T20:13:54.595Z,3.70
2018-12-20T20:16:22.675Z,3.80
2018-12-20T20:18:50.735Z,3.90
2018-12-20T20:21:18.770Z,3.90
2018-12-20T20:23:46.944Z,3.90
2018-12-20T20:26:15.013Z,3.90
2018-12-20T20:28:43.207Z,3.80
2018-12-20T20:31:11.698Z,3.70
2018-12-20T20:33:39.874Z,3.60
2018-12-20T20:36:07.926Z,3.50
2018-12-20T20:38:35.899Z,3.30
2018-12-20T20:41:04.375Z,3.30
2018-12-20T20:43:32.465Z,3.20
2018-12-20T20:46:00.598Z,3.10
2018-12-20T20:48:30.514Z,3.10
2018-12-20T20:50:58.919Z,3.00
2018-12-20T20:53:27.569Z,3.00
2018-12-20T20:55:56.425Z,3.10
2018-12-20T20:58:24.458Z,3.00
2018-12-20T21:00:52.532Z,3.10
2018-12-20T21:03:20.752Z,3.30
2018-12-20T21:05:49.186Z,3.40
2018-12-20T21:08:17.260Z,3.40
2018-12-20T21:10:45.335Z,3.50
2018-12-20T21:13:13.423Z,3.70
2018-12-20T21:15:41.446Z,3.60
2018-12-20T21:18:10.004Z,3.60
2018-12-20T21:20:38.306Z,3.50
2018-12-20T21:23:06.398Z,3.40
2018-12-20T21:25:36.364Z,3.60
2018-12-20T21:28:04.695Z,3.40
2018-12-20T21:30:32.966Z,3.50
2018-12-20T21:33:01.248Z,3.40
2018-12-20T21:35:29.646Z,3.30
2018-12-20T21:37:57.789Z,3.00
2018-12-20T21:40:25.896Z,2.90
2018-12-20T21:42:54.024Z,2.70
2018-12-20T21:45:23.033Z,2.80
2018-12-20T21:47:51.194Z,2.80
2018-12-20T21:50:20.317Z,2.80
2018-12-20T21:52:48.451Z,2.70
2018-12-20T21:55:16.649Z,2.80
2018-12-20T21:57:44.839Z,2.80
2018-12-20T22:00:13.004Z,2.90
2018-12-20T22:02:41.170Z,2.90
2018-12-20T22:05:09.337Z,3.10
2018-12-20T22:07:37.402Z,3.30
2018-12-20T22:10:06.545Z,3.50
2018-12-20T22:12:34.646Z,3.60
2018-12-20T22:15:02.955Z,3.70
2018-12-20T22:17:31.001Z,3.70
2018-12-20T22:19:59.297Z,3.70
2018-12-20T22:22:27.466Z,3.80
2018-12-20T22:24:55.538Z,3.70
2018-12-20T22:27:23.590Z,3.70
2018-12-20T22:29:51.696Z,3.60
2018-12-20T22:32:19.889Z,3.50
2018-12-20T22:34:48.155Z,3.40
2018-12-20T22:37:16.436Z,3.30
2018-12-20T22:39:44.692Z,3.30
2018-12-20T22:42:12.842Z,3.50
2018-12-20T22:44:40.955Z,3.60
2018-12-20T22:47:09.270Z,3.70
2018-12-20T22:49:37.494Z,3.80
2018-12-20T22:52:06.104Z,3.80
2018-12-20T22:54:34.396Z,3.80
2018-12-20T22:57:02.694Z,3.80
2018-12-20T22:59:31.097Z,3.90
2018-12-20T23:01:59.138Z,3.90
2018-12-20T23:04:27.598Z,4.00
2018-12-20T23:06:55.590Z,4.00
2018-12-20T23:09:24.050Z,4.00
2018-12-20T23:11:52.147Z,3.80
2018-12-20T23:14:20.354Z,3.70
2018-12-20T23:16:53.701Z,3.70
2018-12-20T23:19:18.435Z,3.50
2018-12-20T23:21:46.509Z,3.20
2018-12-20T23:24:14.915Z,2.80
2018-12-20T23:26:43.359Z,2.60
2018-12-20T23:29:11.906Z,2.50
2018-12-20T23:31:40.350Z,2.60
2018-12-20T23:34:08.407Z,2.90
2018-12-20T23:36:36.716Z,3.00
2018-12-20T23:39:06.122Z,2.90
2018-12-20T23:41:34.142Z,2.90
2018-12-20T23:44:02.190Z,2.70
2018-12-20T23:46:30.385Z,2.60
2018-12-20T23:48:58.659Z,2.50
2018-12-20T23:51:26.958Z,2.50
2018-12-20T23:53:55.111Z,2.40
2018-12-20T23:56:23.400Z,2.30
2018-12-20T23:58:51.546Z,2.10
